Terminal Aerodrome Forecast
Issued by NWS

Home | Current Version | Previous Version | Text Only | Print | Product List | Glossary On
Versions: 1 2 3 4 5 6 7 8 9 10 11 12 13 14 15 16 17 18 19
000
FTUS45 KLKN 261120
TAFTPH
TAF
KTPH 261120Z 2612/2712 34010KT P6SM FEW100
     FM261700 33013G23KT P6SM SCT080 BKN120
     FM270400 36011KT P6SM SCT120=

USA.gov is the U.S. government's official web portal to all federal, state and local government web resources and services.